Time;durP1;ratioP1;P1;durP2;ratioP2;P2;SDS_P1;SDS_P2;PMS_P1;PMS_P2;Temp;Humidity;BMP_temperature;BMP_pressure;BME280_temperature;BME280_humidity;BME280_pressure;Samples;Min_cycle;Max_cycle;Signal;HPM_P1;HPM_P2
2020/12/19 00:01:32;;;;;;;10.68;8.40;;;;;;;11.65;54.75;101440.19;5008226;27;99691;-58
2020/12/19 00:03:58;;;;;;;10.88;8.80;;;;;;;11.66;54.53;101439.13;5007977;27;98362;-58
2020/12/19 00:06:24;;;;;;;10.80;7.97;;;;;;;11.65;54.51;101435.59;5007055;27;126819;-58
2020/12/19 00:08:50;;;;;;;10.10;8.13;;;;;;;11.64;54.26;101435.84;5007170;27;124210;-59
2020/12/19 00:11:16;;;;;;;10.85;8.38;;;;;;;11.62;54.72;101421.78;5027983;27;98925;-58
2020/12/19 00:13:44;;;;;;;10.65;8.23;;;;;;;11.62;54.08;101425.28;5027448;27;128034;-58
2020/12/19 00:16:15;;;;;;;10.00;7.88;;;;;;;11.60;54.40;101432.03;5010567;27;125797;-58
2020/12/19 00:18:41;;;;;;;11.63;8.52;;;;;;;11.60;54.26;101422.03;5027856;27;97970;-58
2020/12/19 00:21:07;;;;;;;11.30;8.40;;;;;;;11.60;54.46;101424.75;5027055;27;117833;-58
2020/12/19 00:23:33;;;;;;;11.20;8.20;;;;;;;11.62;54.16;101421.78;5028218;27;98624;-58
2020/12/19 00:26:00;;;;;;;12.27;8.95;;;;;;;11.65;53.92;101421.28;5026600;27;127662;-58
2020/12/19 00:28:26;;;;;;;12.05;8.57;;;;;;;11.66;53.85;101414.81;5023656;27;123368;-58
2020/12/19 00:30:52;;;;;;;12.23;8.32;;;;;;;11.67;53.77;101414.56;5023531;27;128503;-58
2020/12/19 00:33:18;;;;;;;11.02;8.32;;;;;;;11.71;53.90;101407.59;5023745;27;128524;-58
2020/12/19 00:35:44;;;;;;;13.40;9.27;;;;;;;11.70;53.64;101408.66;5021910;27;117947;-57
2020/12/19 00:38:10;;;;;;;12.45;8.70;;;;;;;11.69;53.52;101404.31;5024090;27;123767;-58
2020/12/19 00:40:36;;;;;;;11.68;8.80;;;;;;;11.69;53.71;101406.22;5024040;27;126099;-58
2020/12/19 00:43:02;;;;;;;12.35;9.15;;;;;;;11.68;53.95;101402.69;5023530;27;126770;-58
2020/12/19 00:45:29;;;;;;;12.40;9.10;;;;;;;11.68;53.84;101404.59;5023215;27;128279;-58
2020/12/19 00:47:55;;;;;;;12.02;8.75;;;;;;;11.69;53.67;101400.81;5007912;27;98087;-58
2020/12/19 00:50:21;;;;;;;12.20;8.90;;;;;;;11.66;53.54;101402.13;5003404;27;127132;-58
2020/12/19 00:52:47;;;;;;;11.02;8.40;;;;;;;11.65;53.76;101403.19;5002960;27;127979;-58
2020/12/19 00:55:13;;;;;;;12.57;8.85;;;;;;;11.68;53.81;101402.69;5003723;27;112354;-58
2020/12/19 00:57:39;;;;;;;12.32;8.48;;;;;;;11.66;54.02;101406.72;5004350;27;97725;-58
2020/12/19 01:00:08;;;;;;;11.40;8.70;;;;;;;11.63;53.38;101393.69;5002916;27;98803;-57
2020/12/19 01:02:36;;;;;;;11.75;8.75;;;;;;;11.64;53.64;101398.88;5001900;27;98628;-57
2020/12/19 01:05:03;;;;;;;11.15;7.88;;;;;;;11.60;53.33;101400.44;5007928;27;97755;-58
2020/12/19 01:07:30;;;;;;;11.43;8.32;;;;;;;11.61;53.18;101399.38;5024225;27;108799;-58
2020/12/19 01:09:58;;;;;;;12.48;8.73;;;;;;;11.58;53.26;101405.25;5023334;27;98166;-59
2020/12/19 01:12:24;;;;;;;10.32;8.30;;;;;;;11.58;53.11;101393.66;5023121;27;119474;-58
2020/12/19 01:14:50;;;;;;;10.15;7.65;;;;;;;11.55;53.70;101403.91;5015679;27;98000;-58
2020/12/19 01:17:16;;;;;;;12.05;8.38;;;;;;;11.55;53.69;101401.19;5013032;27;123604;-58
2020/12/19 01:19:42;;;;;;;11.70;8.80;;;;;;;11.52;53.66;101396.28;5023691;27;98696;-58
2020/12/19 01:22:08;;;;;;;10.65;8.23;;;;;;;11.52;53.26;101392.78;5003701;27;112224;-58
2020/12/19 01:24:35;;;;;;;10.55;7.93;;;;;;;11.53;53.01;101394.41;5000423;27;127482;-58
2020/12/19 01:27:01;;;;;;;10.63;8.23;;;;;;;11.50;53.42;101390.31;4967461;27;104018;-58
2020/12/19 01:29:27;;;;;;;11.85;8.30;;;;;;;11.49;53.12;101379.78;5003087;27;98578;-58
2020/12/19 01:31:54;;;;;;;11.23;7.72;;;;;;;11.48;53.41;101381.66;5000202;27;126222;-58
2020/12/19 01:34:20;;;;;;;10.82;8.15;;;;;;;11.46;53.52;101372.16;5001288;27;97980;-58
2020/12/19 01:36:47;;;;;;;12.20;8.73;;;;;;;11.46;53.67;101377.56;5000263;27;122538;-57
2020/12/19 01:39:13;;;;;;;11.13;8.35;;;;;;;11.43;52.98;101380.75;5002355;27;98389;-58
2020/12/19 01:41:39;;;;;;;11.13;8.23;;;;;;;11.42;53.36;101374.56;5001075;27;99263;-58
2020/12/19 01:44:05;;;;;;;11.57;8.52;;;;;;;11.43;52.95;101386.97;5001679;27;126130;-58
2020/12/19 01:46:55;;;;;;;11.95;8.70;;;;;;;11.39;53.54;101380.44;5004009;27;97709;-57
2020/12/19 01:49:32;;;;;;;10.65;8.48;;;;;;;11.38;53.69;101380.72;4997921;27;98476;-58
2020/12/19 01:52:02;;;;;;;12.68;8.70;;;;;;;11.36;53.31;101375.56;5001474;27;99192;-59
2020/12/19 01:54:29;;;;;;;11.70;8.50;;;;;;;11.37;52.97;101373.69;5000183;27;119602;-58
2020/12/19 01:56:59;;;;;;;11.55;8.85;;;;;;;11.35;53.61;101370.41;5002460;27;97873;-58
2020/12/19 01:59:26;;;;;;;11.35;8.38;;;;;;;11.34;53.29;101366.06;5001768;27;98088;-58
2020/12/19 02:01:56;;;;;;;11.93;9.07;;;;;;;11.34;52.86;101360.69;5002036;27;101792;-57
2020/12/19 02:04:24;;;;;;;11.70;8.93;;;;;;;11.33;53.35;101362.56;5003183;27;98003;-58
2020/12/19 02:06:53;;;;;;;11.27;8.68;;;;;;;11.28;53.49;101357.94;5002810;27;97948;-58
2020/12/19 02:09:21;;;;;;;13.23;9.25;;;;;;;11.30;52.88;101361.19;5000821;27;98566;-58
2020/12/19 02:11:47;;;;;;;12.70;9.10;;;;;;;11.28;53.05;101357.13;5002606;27;98441;-58
2020/12/19 02:14:13;;;;;;;12.07;8.65;;;;;;;11.27;53.29;101353.56;5002536;27;98257;-58
2020/12/19 02:16:52;;;;;;;13.00;8.70;;;;;;;11.27;53.19;101364.38;5003819;27;100943;-58
2020/12/19 02:19:18;;;;;;;12.68;9.25;;;;;;;11.24;53.20;101353.28;5002324;27;98341;-58
2020/12/19 02:21:44;;;;;;;11.80;8.75;;;;;;;11.24;52.68;101351.41;5000986;27;98707;-58
2020/12/19 02:24:10;;;;;;;12.82;8.95;;;;;;;11.24;53.51;101354.09;5000632;27;126118;-58
2020/12/19 02:26:36;;;;;;;14.60;9.32;;;;;;;11.22;52.60;101347.31;5002421;27;97715;-58
2020/12/19 02:29:03;;;;;;;13.02;9.43;;;;;;;11.22;52.89;101345.41;5002709;27;103240;-58
2020/12/19 02:31:29;;;;;;;13.35;9.38;;;;;;;11.21;52.59;101343.78;5015211;27;111443;-58
2020/12/19 02:33:55;;;;;;;13.32;9.43;;;;;;;11.21;53.00;101338.41;5021500;27;126793;-58
2020/12/19 02:36:21;;;;;;;14.63;10.05;;;;;;;11.18;53.08;101338.09;5021312;27;123117;-58
2020/12/19 02:38:47;;;;;;;14.50;9.55;;;;;;;11.18;52.74;101338.88;5020935;27;128259;-58
2020/12/19 02:41:13;;;;;;;13.65;9.43;;;;;;;11.19;52.76;101337.81;5022053;27;126774;-58
2020/12/19 02:43:39;;;;;;;13.77;9.48;;;;;;;11.17;53.17;101334.56;5019867;27;127532;-58
2020/12/19 02:46:05;;;;;;;14.20;9.57;;;;;;;11.16;52.98;101330.25;5019828;27;122824;-58
2020/12/19 02:48:31;;;;;;;14.48;9.55;;;;;;;11.14;53.20;101326.97;5000847;27;127984;-58
2020/12/19 02:50:57;;;;;;;14.88;10.57;;;;;;;11.13;52.95;101330.75;5000632;27;111822;-58
2020/12/19 02:53:23;;;;;;;13.38;9.80;;;;;;;11.13;52.81;101325.34;5000878;27;127353;-58
2020/12/19 02:55:49;;;;;;;13.95;9.82;;;;;;;11.11;52.35;101322.06;5001892;27;113015;-58
2020/12/19 02:58:15;;;;;;;14.18;9.68;;;;;;;11.09;52.50;101318.81;5017507;27;127501;-58
2020/12/19 03:00:41;;;;;;;12.27;9.60;;;;;;;11.08;52.89;101317.16;5021399;27;126004;-58
2020/12/19 03:03:07;;;;;;;12.02;9.40;;;;;;;11.09;53.00;101313.41;5021740;27;127487;-58
2020/12/19 03:05:33;;;;;;;13.13;9.57;;;;;;;11.07;52.96;101315.53;5002756;27;122351;-58
2020/12/19 03:07:59;;;;;;;13.82;9.90;;;;;;;11.04;52.56;101314.19;5019721;27;127943;-58
2020/12/19 03:10:25;;;;;;;12.63;9.85;;;;;;;11.03;52.32;101306.31;5021860;27;115337;-58
2020/12/19 03:12:51;;;;;;;13.45;9.60;;;;;;;11.01;52.35;101309.28;5021774;27;97871;-58
2020/12/19 03:15:17;;;;;;;14.25;9.45;;;;;;;11.03;52.29;101311.72;5020953;27;124740;-58
2020/12/19 03:17:43;;;;;;;12.75;9.40;;;;;;;11.03;52.54;101311.72;5017089;27;129262;-58
2020/12/19 03:20:09;;;;;;;15.05;10.07;;;;;;;11.02;53.06;101304.69;5007959;27;127137;-58
2020/12/19 03:22:35;;;;;;;14.07;10.32;;;;;;;11.00;52.90;101302.25;5001794;27;127540;-58
2020/12/19 03:25:01;;;;;;;14.25;10.43;;;;;;;11.01;52.92;101305.75;5003971;27;122384;-58
2020/12/19 03:27:27;;;;;;;15.40;10.52;;;;;;;10.98;52.20;101301.66;5021180;27;114746;-58
2020/12/19 03:29:53;;;;;;;13.95;10.20;;;;;;;10.97;52.15;101297.34;5020668;27;128128;-57
2020/12/19 03:32:19;;;;;;;14.63;10.50;;;;;;;10.95;52.81;101299.47;5022032;27;98117;-58
2020/12/19 03:34:46;;;;;;;14.25;10.02;;;;;;;10.94;51.96;101281.66;5020709;27;121359;-58
2020/12/19 03:37:12;;;;;;;14.63;10.32;;;;;;;10.94;52.29;101291.63;5021822;27;115763;-57
2020/12/19 03:39:38;;;;;;;14.38;10.50;;;;;;;10.95;52.42;101296.75;5001669;27;126136;-58
2020/12/19 03:42:04;;;;;;;14.88;10.52;;;;;;;10.93;52.23;101290.00;5020670;27;126044;-58
2020/12/19 03:44:30;;;;;;;14.65;10.68;;;;;;;10.91;52.30;101295.63;5018980;27;121479;-58
2020/12/19 03:46:56;;;;;;;13.23;9.65;;;;;;;10.91;52.62;101295.63;5020800;27;98402;-58
2020/12/19 03:49:22;;;;;;;16.45;10.25;;;;;;;10.93;52.53;101301.59;5020443;27;127903;-58
2020/12/19 03:51:48;;;;;;;14.25;10.43;;;;;;;10.90;51.83;101302.09;5003685;27;127135;-58
2020/12/19 03:54:14;;;;;;;14.70;10.32;;;;;;;10.91;52.12;101300.22;5012878;27;106577;-58
2020/12/19 03:56:40;;;;;;;14.32;10.13;;;;;;;10.91;51.92;101305.59;5002028;27;99691;-58
2020/12/19 03:59:06;;;;;;;15.90;10.43;;;;;;;10.87;52.36;101299.09;5019680;27;127967;-58
2020/12/19 04:01:32;;;;;;;13.80;9.55;;;;;;;10.87;52.42;101299.91;5004136;27;98033;-57
2020/12/19 04:03:58;;;;;;;14.57;9.85;;;;;;;10.84;51.77;101292.28;5002057;27;123327;-58
2020/12/19 04:06:24;;;;;;;14.38;10.10;;;;;;;10.81;51.82;101296.31;5004226;27;127565;-58
2020/12/19 04:08:51;;;;;;;15.73;10.48;;;;;;;10.80;52.35;101289.28;5003876;27;129145;-58
2020/12/19 04:11:17;;;;;;;14.18;10.07;;;;;;;10.78;52.52;101286.03;5004741;27;98644;-58
2020/12/19 04:13:43;;;;;;;13.80;9.68;;;;;;;10.78;52.11;101282.53;5003983;27;122182;-58
2020/12/19 04:16:09;;;;;;;16.13;10.23;;;;;;;10.75;51.81;101275.72;5009963;27;127974;-58
2020/12/19 04:18:35;;;;;;;12.90;9.63;;;;;;;10.74;52.07;101279.50;5023430;27;128843;-58
2020/12/19 04:21:01;;;;;;;13.40;9.55;;;;;;;10.72;51.83;101275.41;5022850;27;128100;-58
2020/12/19 04:23:27;;;;;;;15.13;10.00;;;;;;;10.73;52.46;101280.56;5003446;27;121335;-58
2020/12/19 04:25:53;;;;;;;15.30;9.88;;;;;;;10.70;51.70;101278.38;5003826;27;115274;-58
2020/12/19 04:28:19;;;;;;;14.43;9.55;;;;;;;10.68;52.15;101280.47;5004705;27;98384;-58
2020/12/19 04:30:45;;;;;;;13.77;9.48;;;;;;;10.67;52.66;101284.25;5003477;27;127232;-58
2020/12/19 04:33:11;;;;;;;15.13;10.20;;;;;;;10.68;52.08;101285.06;5004589;27;111879;-58
2020/12/19 04:35:37;;;;;;;13.55;9.52;;;;;;;10.65;52.62;101281.00;5014650;27;126934;-57
2020/12/19 04:38:03;;;;;;;14.57;9.38;;;;;;;10.67;52.50;101278.84;5023289;27;126909;-58
2020/12/19 04:40:29;;;;;;;12.95;9.20;;;;;;;10.66;52.80;101279.13;5023821;27;127600;-58
2020/12/19 04:42:56;;;;;;;13.63;9.23;;;;;;;10.64;52.45;101283.94;5022535;27;102090;-58
2020/12/19 04:45:22;;;;;;;13.23;9.38;;;;;;;10.66;52.07;101277.22;5021994;27;119355;-58
2020/12/19 04:47:49;;;;;;;14.38;9.38;;;;;;;10.63;52.31;101280.41;5022658;27;128204;-58
2020/12/19 04:50:15;;;;;;;13.15;9.27;;;;;;;10.64;52.37;101286.63;5021164;27;126974;-58
2020/12/19 04:52:41;;;;;;;15.00;9.52;;;;;;;10.62;51.78;101273.41;4987505;27;106405;-58
2020/12/19 04:55:07;;;;;;;13.02;9.23;;;;;;;10.61;52.20;101260.16;5023444;27;127954;-58
2020/12/19 04:57:33;;;;;;;13.00;9.30;;;;;;;10.62;52.49;101264.50;5021625;27;128897;-58
2020/12/19 04:59:59;;;;;;;13.18;9.25;;;;;;;10.60;51.87;101266.63;5003988;27;127503;-57
2020/12/19 05:02:25;;;;;;;12.90;9.10;;;;;;;10.61;52.23;101274.47;5023683;27;122409;-58
2020/12/19 05:04:51;;;;;;;13.10;9.40;;;;;;;10.60;52.00;101269.31;4984649;27;127000;-58
2020/12/19 05:07:17;;;;;;;12.25;9.25;;;;;;;10.60;52.73;101261.22;5018236;27;126168;-58
2020/12/19 05:09:44;;;;;;;12.95;9.35;;;;;;;10.57;52.02;101268.75;5001734;27;97948;-58
2020/12/19 05:12:11;;;;;;;13.45;9.82;;;;;;;10.57;52.24;101276.00;5018005;27;97858;-58
2020/12/19 05:14:37;;;;;;;14.30;9.70;;;;;;;10.55;52.07;101272.75;5015613;27;98460;-58
2020/12/19 05:17:04;;;;;;;15.00;9.50;;;;;;;10.57;52.03;101276.84;5003414;27;99386;-58
2020/12/19 05:19:30;;;;;;;13.85;9.15;;;;;;;10.53;51.97;101278.41;5004158;27;98167;-58
2020/12/19 05:21:56;;;;;;;12.13;8.98;;;;;;;10.54;52.30;101279.22;5011792;27;123162;-58
2020/12/19 05:24:31;;;;;;;13.68;9.27;;;;;;;10.50;52.16;101281.59;5023430;27;98358;-58
2020/12/19 05:26:58;;;;;;;13.13;9.25;;;;;;;10.52;52.34;101287.53;5023964;27;97827;-58
2020/12/19 05:29:25;;;;;;;12.57;8.88;;;;;;;10.54;52.14;101281.91;5021594;27;102862;-58
2020/12/19 05:31:58;;;;;;;13.00;9.27;;;;;;;10.49;52.27;101276.41;5011947;27;97899;-58
2020/12/19 05:34:25;;;;;;;13.75;9.02;;;;;;;10.52;51.69;101282.13;5000898;27;119711;-58
2020/12/19 05:36:52;;;;;;;12.35;9.30;;;;;;;10.51;51.70;101285.91;5000819;27;98704;-58
2020/12/19 05:39:18;;;;;;;12.65;8.88;;;;;;;10.50;52.21;101278.88;5004235;27;97950;-58
2020/12/19 05:41:45;;;;;;;12.90;8.98;;;;;;;10.48;51.84;101281.00;5004033;27;97995;-58
2020/12/19 05:44:12;;;;;;;12.65;8.80;;;;;;;10.47;51.93;101279.38;5003344;27;97885;-58
2020/12/19 05:46:40;;;;;;;12.15;8.50;;;;;;;10.49;52.53;101281.81;5003026;27;98912;-58
2020/12/19 05:49:08;;;;;;;11.45;8.38;;;;;;;10.48;52.00;101278.31;5002872;27;98491;-58
2020/12/19 05:51:36;;;;;;;13.25;8.80;;;;;;;10.47;51.75;101273.16;5003145;27;97658;-58
2020/12/19 05:54:10;;;;;;;10.68;8.10;;;;;;;10.44;52.55;101281.75;5002411;27;98712;-58
2020/12/19 05:56:49;;;;;;;11.93;8.35;;;;;;;10.43;52.11;101274.72;5002943;27;100138;-58
2020/12/19 05:59:17;;;;;;;12.88;8.90;;;;;;;10.44;52.32;101279.06;5003166;27;98806;-58
2020/12/19 06:01:48;;;;;;;12.43;8.23;;;;;;;10.40;51.73;101276.03;5022471;27;114579;-58
2020/12/19 06:04:15;;;;;;;11.77;8.52;;;;;;;10.40;51.70;101278.72;5022713;27;98988;-58
2020/12/19 06:06:43;;;;;;;12.27;9.00;;;;;;;10.38;52.39;101280.06;5023266;27;98644;-58
2020/12/19 06:09:10;;;;;;;11.50;8.70;;;;;;;10.41;51.37;101269.56;5023183;27;98396;-58
2020/12/19 06:11:49;;;;;;;12.00;8.77;;;;;;;10.35;52.01;101273.25;5022419;27;113149;-57
2020/12/19 06:14:21;;;;;;;10.73;7.72;;;;;;;10.35;51.82;101275.97;5005359;27;103184;-58
2020/12/19 06:16:49;;;;;;;11.52;7.90;;;;;;;10.35;52.01;101272.44;5001159;27;100307;-58
2020/12/19 06:19:25;;;;;;;12.60;8.82;;;;;;;10.34;51.75;101268.13;4989463;27;98215;-58
2020/12/19 06:21:55;;;;;;;11.90;8.30;;;;;;;10.33;52.16;101269.97;5002284;27;117013;-58
2020/12/19 06:24:44;;;;;;;11.20;7.90;;;;;;;10.31;51.78;101270.25;5001960;27;99162;-58
2020/12/19 06:27:38;;;;;;;11.90;8.10;;;;;;;10.28;52.03;101275.31;4993181;27;99297;-58
2020/12/19 06:30:04;;;;;;;11.15;8.27;;;;;;;10.32;51.65;101268.34;5020640;27;98388;-58
2020/12/19 06:32:31;;;;;;;11.52;8.40;;;;;;;10.31;51.54;101266.72;5023224;27;98067;-58
2020/12/19 06:35:08;;;;;;;12.10;8.68;;;;;;;10.29;51.70;101260.75;5022635;27;98822;-57
2020/12/19 06:37:36;;;;;;;12.77;8.55;;;;;;;10.32;51.93;101260.28;5022549;27;108502;-57
2020/12/19 06:40:17;;;;;;;14.57;9.43;;;;;;;10.28;51.54;101259.94;5022171;27;98421;-58
2020/12/19 06:42:44;;;;;;;12.77;9.07;;;;;;;10.30;51.73;101257.84;5022565;27;97793;-58
2020/12/19 06:45:30;;;;;;;12.48;9.10;;;;;;;10.24;51.61;101258.78;5022128;27;99152;-58
2020/12/19 06:47:57;;;;;;;13.45;9.30;;;;;;;10.30;51.77;101260.53;5022330;27;99239;-58
2020/12/19 06:50:23;;;;;;;12.45;9.65;;;;;;;10.31;51.94;101275.63;5022238;27;97954;-58
2020/12/19 06:52:59;;;;;;;12.75;9.52;;;;;;;10.27;51.73;101270.97;5022029;27;98038;-57
2020/12/19 06:55:27;;;;;;;13.18;8.85;;;;;;;10.30;52.05;101265.09;5022087;27;98493;-57
2020/12/19 06:57:55;;;;;;;12.55;8.80;;;;;;;10.28;51.76;101264.53;5022062;27;99085;-58
2020/12/19 07:00:28;;;;;;;12.05;9.57;;;;;;;10.29;51.93;101269.66;5022220;27;103969;-58
2020/12/19 07:02:58;;;;;;;12.10;8.90;;;;;;;10.27;51.88;101263.72;5021608;27;108213;-57
2020/12/19 07:05:27;;;;;;;13.18;9.15;;;;;;;10.31;52.28;101258.66;5005080;27;108381;-58
2020/12/19 07:07:53;;;;;;;12.00;9.25;;;;;;;10.31;51.65;101262.16;5000441;27;97827;-58
2020/12/19 07:10:33;;;;;;;12.60;9.18;;;;;;;10.28;51.91;101259.13;4999309;27;114334;-58
2020/12/19 07:12:59;;;;;;;14.05;10.38;;;;;;;10.30;51.80;101262.41;4999790;27;97856;-58
2020/12/19 07:15:45;;;;;;;14.48;10.38;;;;;;;10.27;52.04;101271.81;4999489;27;99092;-58
2020/12/19 07:18:27;;;;;;;14.48;10.77;;;;;;;10.27;52.15;101266.41;4999732;27;98703;-57
2020/12/19 07:21:05;;;;;;;14.20;10.85;;;;;;;10.28;52.27;101265.34;4999048;27;98431;-57
2020/12/19 07:23:34;;;;;;;14.43;11.02;;;;;;;10.30;51.91;101268.63;4999552;27;97990;-58
2020/12/19 07:26:00;;;;;;;15.00;10.60;;;;;;;10.31;52.20;101262.16;5000421;27;98386;-58
2020/12/19 07:28:26;;;;;;;14.30;10.50;;;;;;;10.35;51.98;101267.06;4998536;27;111939;-58
2020/12/19 07:30:52;;;;;;;15.00;11.13;;;;;;;10.37;52.25;101260.34;4999376;27;97994;-58
2020/12/19 07:33:19;;;;;;;15.88;11.30;;;;;;;10.43;52.28;101253.16;4997253;27;117763;-58
2020/12/19 07:35:45;;;;;;;14.48;11.25;;;;;;;10.49;52.08;101260.25;4999056;27;116055;-58
2020/12/19 07:38:11;;;;;;;15.20;11.82;;;;;;;10.52;52.74;101262.47;5002187;27;127816;-58
2020/12/19 07:40:37;;;;;;;13.35;11.02;;;;;;;10.57;51.67;101262.53;5001953;27;128032;-58
2020/12/19 07:43:13;;;;;;;14.93;11.30;;;;;;;10.64;52.08;101273.13;5004127;27;110781;-58
2020/12/19 07:45:39;;;;;;;15.48;11.48;;;;;;;10.71;52.48;101269.19;5000773;27;127875;-58
2020/12/19 07:48:06;;;;;;;14.27;11.00;;;;;;;10.79;52.12;101255.28;4999714;27;128684;-58
2020/12/19 07:50:33;;;;;;;14.52;11.10;;;;;;;10.82;52.69;101254.78;5003258;27;97918;-58
2020/12/19 07:53:00;;;;;;;14.75;11.18;;;;;;;10.92;52.95;101261.38;5010470;27;97838;-58
2020/12/19 07:55:26;;;;;;;14.05;10.98;;;;;;;11.00;52.59;101259.09;5023122;27;98222;-58
2020/12/19 07:57:55;;;;;;;13.52;10.88;;;;;;;11.02;52.98;101258.81;5022573;27;102140;-58
2020/12/19 08:00:24;;;;;;;15.43;11.23;;;;;;;11.13;52.77;101262.47;5022349;27;98176;-58
2020/12/19 08:02:51;;;;;;;12.82;10.65;;;;;;;11.22;52.66;101252.84;5021144;27;97915;-58
2020/12/19 08:05:17;;;;;;;14.63;11.38;;;;;;;11.38;53.15;101254.66;5022986;27;99452;-58
2020/12/19 08:07:43;;;;;;;15.82;11.30;;;;;;;11.57;52.49;101249.72;5016936;27;127444;-58
2020/12/19 08:10:13;;;;;;;13.88;11.02;;;;;;;11.77;52.51;101241.81;5000934;27;127430;-58
2020/12/19 08:12:40;;;;;;;12.98;10.52;;;;;;;12.02;52.10;101251.22;5007810;27;99485;-58
2020/12/19 08:15:15;;;;;;;13.18;10.77;;;;;;;12.29;51.82;101246.56;5003782;27;98444;-58
2020/12/19 08:18:01;;;;;;;14.30;11.13;;;;;;;12.64;51.23;101256.00;5008335;27;98285;-58
2020/12/19 08:20:37;;;;;;;13.65;10.88;;;;;;;12.89;50.88;101251.78;5003040;27;97814;-58
2020/12/19 08:23:07;;;;;;;13.38;10.77;;;;;;;13.15;50.88;101247.28;5022187;27;106599;-58
2020/12/19 08:25:34;;;;;;;13.68;11.13;;;;;;;13.43;50.63;101238.75;5004271;27;98533;-58
2020/12/19 08:28:03;;;;;;;12.38;10.52;;;;;;;13.73;50.54;101242.59;5020936;27;98519;-58
2020/12/19 08:30:31;;;;;;;12.88;10.32;;;;;;;13.96;50.47;101235.84;5022277;27;111230;-58
2020/12/19 08:33:03;;;;;;;13.82;11.18;;;;;;;14.19;50.40;101234.47;5022472;27;97762;-58
2020/12/19 08:35:38;;;;;;;14.73;12.15;;;;;;;14.48;50.44;101238.19;5022177;27;98800;-58
2020/12/19 08:38:26;;;;;;;14.63;12.38;;;;;;;14.67;50.81;101235.75;5021879;27;99223;-58
2020/12/19 08:40:56;;;;;;;14.70;12.75;;;;;;;14.71;51.11;101234.09;5008129;27;98514;-58
2020/12/19 08:43:34;;;;;;;15.57;12.32;;;;;;;14.94;50.90;101229.97;5002926;27;97940;-58
2020/12/19 08:46:14;;;;;;;14.02;12.10;;;;;;;15.21;51.07;101226.03;5002027;27;98374;-58
2020/12/19 08:48:43;;;;;;;14.85;12.32;;;;;;;15.44;50.83;101228.06;5001308;27;99234;-58
2020/12/19 08:51:10;;;;;;;13.70;12.18;;;;;;;15.77;50.58;101222.97;5000950;27;127104;-58
2020/12/19 08:53:36;;;;;;;14.13;12.45;;;;;;;16.10;50.56;101218.59;5001314;27;110525;-58
2020/12/19 08:56:17;;;;;;;14.48;12.50;;;;;;;16.48;50.00;101224.22;5001180;27;98453;-58
2020/12/19 08:58:52;;;;;;;15.80;12.85;;;;;;;16.65;50.33;101234.66;5001344;27;98592;-58
2020/12/19 09:01:18;;;;;;;15.63;12.82;;;;;;;16.68;50.54;101236.81;4999908;27;98255;-58
2020/12/19 09:03:45;;;;;;;16.15;13.93;;;;;;;16.73;50.64;101244.94;5001097;27;98485;-58
2020/12/19 09:06:12;;;;;;;17.52;14.25;;;;;;;16.82;50.71;101245.94;5000395;27;128130;-58
2020/12/19 09:08:48;;;;;;;16.83;13.63;;;;;;;16.93;50.98;101247.41;5001629;27;98230;-58
2020/12/19 09:11:28;;;;;;;18.67;14.13;;;;;;;17.05;50.58;101230.66;5001764;27;98000;-58
2020/12/19 09:14:10;;;;;;;15.73;13.18;;;;;;;17.16;50.61;101234.06;5001301;27;98234;-58
2020/12/19 09:16:49;;;;;;;14.33;11.57;;;;;;;17.20;50.97;101235.09;5004523;27;98197;-57
2020/12/19 09:19:16;;;;;;;16.40;12.70;;;;;;;17.33;51.27;101237.09;5019463;27;98725;-58
2020/12/19 09:21:56;;;;;;;14.57;12.52;;;;;;;17.44;50.87;101240.47;5019977;27;117151;-58
2020/12/19 09:24:22;;;;;;;13.63;12.10;;;;;;;17.48;50.71;101246.16;5021655;27;97736;-58
2020/12/19 09:26:48;;;;;;;14.95;12.27;;;;;;;17.56;51.25;101232.66;5020992;27;107126;-58
2020/12/19 09:29:14;;;;;;;14.95;12.90;;;;;;;17.62;51.02;101238.88;5019578;27;128146;-58
2020/12/19 09:31:40;;;;;;;15.68;13.65;;;;;;;17.64;51.57;101248.38;5001249;27;98176;-58
2020/12/19 09:34:06;;;;;;;16.20;14.50;;;;;;;17.60;51.68;101235.59;5001362;27;97772;-59
2020/12/19 09:36:33;;;;;;;15.75;14.15;;;;;;;17.53;51.94;101243.38;5000456;27;117907;-58
2020/12/19 09:38:59;;;;;;;16.95;15.15;;;;;;;17.43;52.00;101249.75;5001076;27;103216;-58
2020/12/19 09:41:25;;;;;;;18.15;16.25;;;;;;;17.35;52.72;101248.50;5000051;27;126766;-58
2020/12/19 09:43:51;;;;;;;21.67;19.20;;;;;;;17.28;53.44;101252.69;5001680;27;97649;-58
2020/12/19 09:46:17;;;;;;;22.85;20.55;;;;;;;17.16;53.71;101244.94;5010016;27;99173;-58
2020/12/19 09:48:43;;;;;;;21.90;19.60;;;;;;;17.04;54.06;101255.47;5020814;27;98764;-58
2020/12/19 09:51:09;;;;;;;19.00;16.98;;;;;;;16.96;54.94;101250.66;5019900;27;128789;-58
2020/12/19 09:53:36;;;;;;;17.70;15.90;;;;;;;16.81;55.15;101251.66;5019901;27;124111;-58
2020/12/19 09:56:02;;;;;;;16.23;14.63;;;;;;;16.72;55.69;101248.72;5020573;27;117979;-58
2020/12/19 09:58:28;;;;;;;14.93;13.45;;;;;;;16.54;56.42;101244.03;5011072;27;98682;-59
2020/12/19 10:00:54;;;;;;;14.07;12.57;;;;;;;16.40;56.45;101250.16;5018976;27;128249;-58
2020/12/19 10:03:20;;;;;;;12.85;11.55;;;;;;;16.22;57.38;101247.34;5020514;27;123111;-58
2020/12/19 10:05:46;;;;;;;12.25;10.85;;;;;;;16.05;57.33;101245.03;5019913;27;98074;-58
2020/12/19 10:08:14;;;;;;;10.93;9.80;;;;;;;15.84;57.59;101244.41;5019884;27;128203;-58
2020/12/19 10:10:43;;;;;;;11.13;9.30;;;;;;;15.67;57.30;101245.59;5002253;27;98203;-58
2020/12/19 10:13:12;;;;;;;13.07;8.73;;;;;;;15.51;57.88;101245.94;5020089;27;97760;-58
2020/12/19 10:15:39;;;;;;;8.60;7.70;;;;;;;15.36;58.58;101253.09;5002565;27;98778;-58
2020/12/19 10:18:05;;;;;;;8.65;7.75;;;;;;;15.22;58.56;101252.91;5018056;27;100863;-58
2020/12/19 10:20:31;;;;;;;7.85;7.05;;;;;;;15.14;58.75;101253.50;5020164;27;98138;-58
2020/12/19 10:22:57;;;;;;;7.70;7.00;;;;;;;15.05;58.90;101248.91;5000858;27;97900;-58
2020/12/19 10:25:23;;;;;;;7.13;6.40;;;;;;;14.97;59.08;101253.00;4999458;27;126671;-58
2020/12/19 10:27:49;;;;;;;7.15;6.45;;;;;;;14.89;59.01;101256.28;4999268;27;121343;-58
2020/12/19 10:30:15;;;;;;;6.82;6.15;;;;;;;14.81;59.23;101246.81;4998603;27;126552;-58
2020/12/19 10:32:41;;;;;;;6.78;5.95;;;;;;;14.74;59.31;101254.47;4999424;27;118000;-58
2020/12/19 10:35:07;;;;;;;5.93;5.22;;;;;;;14.69;58.95;101259.88;4999461;27;105677;-58
2020/12/19 10:37:34;;;;;;;6.03;5.43;;;;;;;14.64;59.48;101252.56;4999729;27;98294;-58
2020/12/19 10:40:00;;;;;;;6.15;5.55;;;;;;;14.61;59.36;101246.88;4999662;27;109894;-58
2020/12/19 10:42:27;;;;;;;5.78;5.10;;;;;;;14.59;59.91;101247.16;4999914;27;97899;-58
2020/12/19 10:44:53;;;;;;;5.32;4.65;;;;;;;14.57;59.59;101249.34;4999027;27;125936;-58
2020/12/19 10:47:19;;;;;;;5.75;5.18;;;;;;;14.56;59.71;101245.00;4998089;27;106917;-58
2020/12/19 10:49:45;;;;;;;4.95;4.40;;;;;;;14.56;60.09;101249.63;5018340;27;123540;-58
2020/12/19 10:52:11;;;;;;;4.72;4.30;;;;;;;14.53;59.25;101245.53;5001492;27;97969;-58
2020/12/19 10:54:37;;;;;;;4.97;4.22;;;;;;;14.52;59.55;101235.78;5018670;27;124519;-58
2020/12/19 10:57:03;;;;;;;5.00;4.50;;;;;;;14.51;59.90;101236.06;5018908;27;128983;-58
2020/12/19 10:59:29;;;;;;;4.93;4.00;;;;;;;14.48;59.98;101237.41;5018437;27;125592;-58
2020/12/19 11:01:56;;;;;;;5.63;4.57;;;;;;;14.48;60.09;101234.69;4984047;27;97884;-57
2020/12/19 11:04:22;;;;;;;4.75;4.25;;;;;;;14.45;59.96;101227.91;5019281;27;98819;-58
2020/12/19 11:06:49;;;;;;;4.53;4.13;;;;;;;14.45;59.71;101229.78;5018917;27;128180;-58
2020/12/19 11:09:16;;;;;;;4.65;3.83;;;;;;;14.40;59.04;101244.19;5004186;27;98605;-58
2020/12/19 11:11:52;;;;;;;4.45;3.80;;;;;;;14.34;58.67;101237.13;4980487;27;98260;-58
2020/12/19 11:14:18;;;;;;;4.70;4.00;;;;;;;14.29;59.21;101237.16;4999533;27;98999;-58
2020/12/19 11:16:44;;;;;;;4.25;3.78;;;;;;;14.29;59.33;101229.00;4998752;27;117229;-58